Terminal Aerodrome Forecast
Issued by NWS Buffalo, NY

Home | Current Version | Previous Version | Text Only | Print | Product List | Glossary On
Versions: 1 2 3 4 5 6 7 8 9 10 11 12 13 14 15 16 17 18 19 20 21 22 23 24 25 26 27 28
000
FTUS41 KBUF 150200 AAA
TAFBUF
TAF AMD
KBUF 150257Z 1503/1524 09003KT P6SM SCT045 BKN050
     FM150900 VRB03KT P6SM SCT050
     FM151400 20006KT P6SM SCT130
     FM151800 21010KT P6SM BKN130
     FM151900 22011KT P6SM BKN120
     FM152300 24006KT P6SM OVC080=

USA.gov is the U.S. government's official web portal to all federal, state and local government web resources and services.